| time (UTC) | temp C | wind direction | speed KPH | gust KPH | rain 1hr cm | rain 24hr cm | rain mn cm | humidity % | barometer mb |
| 20260510093246 | 19 | 79 | 1.6 | 6.4 | 0.00 | 0.00 | 0.00 | 97 | 1013.4 |
| 20260510092606 | -17 | 71 | 1.6 | 4.8 | 0.00 | 0.00 | 0.00 | ||
| 20260510091710 | 19 | 77 | 3.2 | 8.0 | 0.00 | 0.00 | 0.00 | 97 | 1013.4 |
| 20260510091030 | -17 | 81 | 3.2 | 3.2 | 0.00 | 0.00 | 0.00 | ||
| 20260510085707 | 19 | 79 | 3.2 | 8.0 | 0.00 | 0.00 | 0.00 | 97 | 1013.3 |
| 20260510085027 | -17 | 81 | 3.2 | 1.6 | 0.00 | 0.00 | 0.00 | ||
| 20260510084103 | -17 | 80 | 1.6 | 1.6 | 0.00 | 0.00 | 0.00 | ||
| 20260510082852 | 19 | 68 | 1.6 | 4.8 | 0.00 | 0.00 | 0.00 | 98 | 1013.3 |
| 20260510082212 | 19 | 43 | 1.6 | 6.4 | 0.00 | 0.00 | 0.00 | 98 | 1013.3 |
| 20260510081532 | -17 | 81 | 3.2 | 3.2 | 0.00 | 0.00 | 0.00 | ||
| 20260510080636 | 19 | 75 | 3.2 | 12.9 | 0.00 | 0.00 | 0.00 | 98 | 1013.1 |
| 20260510075956 | 19 | 81 | 8.0 | 12.9 | 0.00 | 0.00 | 0.00 | 97 | 1013.1 |
| 20260510075316 | 19 | 81 | 4.8 | 16.1 | 0.00 | 0.00 | 0.00 | 98 | 1013.0 |
| 20260510074636 | 19 | 80 | 8.0 | 16.1 | 0.00 | 0.00 | 0.00 | 97 | 1013.0 |
| 20260510073956 | -17 | 81 | 6.4 | 6.4 | 0.00 | 0.00 | 0.00 | ||
| 20260510072847 | -17 | 81 | 6.4 | 6.4 | 0.00 | 0.00 | 0.00 | ||
| 20260510071953 | -17 | 82 | 4.8 | 6.4 | 0.00 | 0.00 | 0.00 | ||
| 20260510070845 | 19 | 82 | 3.2 | 11.3 | 0.00 | 0.00 | 0.00 | 97 | 1012.8 |
| 20260510070205 | -17 | 81 | 6.4 | 8.0 | 0.00 | 0.00 | 0.00 | ||
| 20260510065312 | 19 | 81 | 4.8 | 11.3 | 0.00 | 0.00 | 0.00 | 97 | 1012.9 |
| 20260510064632 | 19 | 81 | 6.4 | 11.3 | 0.00 | 0.00 | 0.00 | 97 | 1012.8 |
| 20260510063952 | -17 | 81 | 6.4 | 8.0 | 0.00 | 0.00 | 0.00 | ||
| 20260510063058 | 19 | 82 | 4.8 | 8.0 | 0.00 | 0.00 | 0.00 | 97 | 1012.9 |
| 20260510062418 | 19 | 80 | 3.2 | 8.0 | 0.00 | 0.00 | 0.00 | 97 | 1012.9 |
| 20260510061738 | 20 | 81 | 4.8 | 8.0 | 0.00 | 0.00 | 0.00 | 97 | 1013.0 |
| 20260510061058 | -17 | 82 | 3.2 | 3.2 | 0.00 | 0.00 | 0.00 | ||
| 20260510055916 | 20 | 78 | 3.2 | 8.0 | 0.00 | 0.00 | 0.00 | 97 | 1013.1 |
| 20260510055236 | -17 | 78 | 9.7 | 0.0 | 0.00 | 0.00 | 0.00 | ||
| 20260510054309 | 20 | 80 | 9.7 | 14.5 | 0.00 | 0.00 | 0.00 | 97 | 1013.2 |
| 20260510053629 | -17 | 81 | 9.7 | 11.3 | 0.00 | 0.00 | 0.00 | ||
| 20260510051031 | -17 | 80 | 12.9 | 4.8 | 0.00 | 0.00 | 0.00 | ||
| 20260510050137 | 20 | 80 | 6.4 | 9.7 | 0.00 | 0.00 | 0.00 | 96 | 1012.6 |
| 20260510045457 | 20 | 28 | 3.2 | 16.1 | 0.00 | 0.00 | 4.62 | 97 | 1012.4 |
| 20260510044817 | 20 | 354 | 3.2 | 27.4 | 0.00 | 0.00 | 4.62 | 97 | 1012.3 |
| 20260510044137 | 20 | 257 | 11.3 | 27.4 | 0.00 | 0.00 | 4.62 | 98 | 1012.2 |
| 20260510043457 | 20 | 258 | 14.5 | 32.2 | 0.00 | 0.00 | 4.62 | 98 | 1012.0 |
| 20260510042817 | -17 | 257 | 14.5 | 19.3 | 0.00 | 0.00 | 4.62 | ||
| 20260510041924 | 20 | 257 | 17.7 | 41.8 | 0.00 | 0.00 | 4.62 | 98 | 1011.9 |
| 20260510041244 | 20 | 258 | 20.9 | 43.5 | 0.00 | 0.00 | 4.62 | 98 | 1012.0 |
| 20260510040604 | -17 | 258 | 20.9 | 22.5 | 0.00 | 0.00 | 4.62 | ||
| 20260510035041 | 20 | 259 | 16.1 | 30.6 | 0.00 | 0.00 | 4.62 | 99 | 1012.7 |
| 20260510034401 | 20 | 258 | 12.9 | 29.0 | 0.00 | 0.00 | 4.62 | 99 | 1012.9 |
| 20260510033733 | 20 | 258 | 16.1 | 29.0 | 0.00 | 0.00 | 4.62 | 99 | 1012.9 |
| 20260510033041 | -17 | 258 | 17.7 | 17.7 | 0.00 | 0.00 | 4.62 | ||
| 20260510032117 | -17 | 258 | 14.5 | 9.7 | 0.00 | 0.00 | 4.62 | ||
| 20260510031151 | 20 | 258 | 11.3 | 20.9 | 0.00 | 0.00 | 4.62 | 99 | 1013.4 |
| 20260510030511 | -17 | 258 | 17.7 | 17.7 | 0.00 | 0.00 | 4.62 | ||
| 20260510024940 | 20 | 257 | 4.8 | 8.0 | 0.00 | 0.00 | 4.62 | 100 | 1013.8 |
| 20260510024300 | -17 | 258 | 4.8 | 6.4 | 0.00 | 0.00 | 4.62 | ||
| 20260510023406 | -17 | 257 | 9.7 | 9.7 | 0.00 | 0.00 | 4.62 | ||
| 20260510021727 | -17 | 10 | 0.0 | 1.6 | 0.00 | 0.00 | 4.62 | ||
| 20260510020831 | 20 | 83 | 3.2 | 6.4 | 0.00 | 0.00 | 4.62 | 100 | 1013.7 |
| 20260510020151 | -17 | 37 | 1.6 | 1.6 | 0.00 | 0.00 | 4.62 | ||
| 20260510014939 | -17 | 3 | 0.0 | 1.6 | 0.00 | 0.00 | 4.62 | ||
| 20260510013756 | 20 | 13 | 0.0 | 6.4 | 0.00 | 0.00 | 4.62 | 100 | 1013.5 |
| 20260510013116 | -17 | 83 | 6.4 | 6.4 | 0.00 | 0.00 | 4.62 | ||
| 20260510011835 | 20 | 299 | 1.6 | 4.8 | 0.00 | 0.00 | 4.62 | 100 | 1013.5 |
| 20260510011155 | 20 | 53 | 1.6 | 11.3 | 0.00 | 0.00 | 4.62 | 100 | 1013.2 |
| 20260510010515 | 20 | 271 | 3.2 | 12.9 | 0.00 | 0.00 | 4.62 | 100 | 1013.0 |
| 20260510005835 | 20 | 269 | 3.2 | 12.9 | 0.00 | 0.00 | 4.62 | 100 | 1012.9 |
| 20260510005155 | 20 | 266 | 3.2 | 12.9 | 0.00 | 0.00 | 4.62 | 100 | 1012.8 |
| 20260510004515 | -17 | 262 | 6.4 | 8.0 | 0.00 | 0.00 | 4.62 | ||
| 20260510003622 | 20 | 262 | 4.8 | 17.7 | 0.00 | 0.00 | 4.62 | 100 | 1012.6 |
| 20260510002942 | 20 | 261 | 6.4 | 16.1 | 0.00 | 0.00 | 4.62 | 100 | 1012.3 |
| 20260510002302 | -17 | 279 | 3.2 | 4.8 | 0.00 | 0.00 | 4.62 | ||
| 20260510001153 | -17 | 261 | 9.7 | 4.8 | 0.00 | 0.00 | 4.62 | ||
| 20260509235526 | -17 | 263 | 8.0 | 3.2 | 0.00 | 0.00 | 4.62 | ||
| 20260509233730 | 20 | 260 | 6.4 | 16.1 | 0.00 | 0.00 | 4.62 | 100 | 1011.8 |
| 20260509233050 | 19 | 263 | 6.4 | 17.7 | 0.00 | 0.00 | 4.62 | 100 | 1012.0 |
| 20260509232410 | 20 | 260 | 8.0 | 17.7 | 0.00 | 0.00 | 4.62 | 100 | 1012.0 |
| 20260509231730 | 19 | 260 | 6.4 | 12.9 | 0.00 | 0.00 | 4.62 | 100 | 1011.8 |
| 20260509231050 | -17 | 267 | 3.2 | 8.0 | 0.00 | 0.00 | 4.62 | ||
| 20260509225653 | -17 | 337 | 1.6 | 0.0 | 0.00 | 0.00 | 4.62 | ||
| 20260509224759 | -17 | 289 | 3.2 | 4.8 | 0.00 | 0.00 | 4.62 | ||
| 20260509223905 | -17 | 262 | 6.4 | 1.6 | 0.00 | 0.00 | 4.62 | ||
| 20260509222939 | 19 | 258 | 4.8 | 14.5 | 0.00 | 0.00 | 4.60 | 100 | 1012.5 |
| 20260509222259 | 19 | 257 | 9.7 | 14.5 | 0.00 | 0.00 | 4.57 | 100 | 1012.5 |
| 20260509221619 | 19 | 316 | 1.6 | 4.8 | 0.00 | 0.00 | 4.55 | 100 | 1011.9 |
| 20260509220939 | -17 | 82 | 4.8 | 3.2 | 0.00 | 0.00 | 4.55 | ||
| 20260509215758 | -17 | 352 | 0.0 | 1.6 | 0.00 | 0.00 | 4.52 | ||
| 20260509214904 | -17 | 258 | 3.2 | 3.2 | 0.00 | 0.00 | 4.52 | ||
| 20260509213621 | 19 | 256 | 4.8 | 9.7 | 0.00 | 0.00 | 4.52 | 100 | 1012.1 |
| 20260509212941 | -17 | 81 | 6.4 | 4.8 | 0.00 | 0.00 | 4.50 | ||
| 20260509212045 | 18 | 81 | 3.2 | 6.4 | 0.00 | 0.00 | 4.47 | 100 | 1012.3 |
| 20260509211405 | -17 | 81 | 8.0 | 4.8 | 0.00 | 0.00 | 4.45 | ||
| 20260509210509 | 19 | 79 | 1.6 | 3.2 | 0.00 | 0.00 | 4.32 | 100 | 1012.7 |
| 20260509205829 | -17 | 10 | 0.0 | 1.6 | 0.00 | 0.00 | 4.24 | ||
| 20260509204934 | 19 | 255 | 3.2 | 8.0 | 0.00 | 0.00 | 4.19 | 100 | 1012.6 |
| 20260509204254 | -17 | 324 | 1.6 | 4.8 | 0.00 | 0.00 | 4.17 | ||
| 20260509202939 | 19 | 340 | 1.6 | 8.0 | 0.00 | 0.00 | 4.14 | 100 | 1012.1 |
| 20260509202259 | -17 | 61 | 3.2 | 1.6 | 0.00 | 0.00 | 4.14 | ||
| 20260509200653 | -17 | 270 | 3.2 | 1.6 | 0.00 | 0.00 | 4.14 | ||
| 20260509195259 | 19 | 332 | 1.6 | 11.3 | 0.00 | 0.00 | 4.11 | 100 | 1011.7 |
| 20260509194619 | 19 | 274 | 3.2 | 11.3 | 0.00 | 0.00 | 4.09 | 100 | 1012.0 |
| 20260509193939 | 19 | 287 | 1.6 | 8.0 | 0.00 | 0.00 | 4.06 | 100 | 1012.2 |
| 20260509193259 | -17 | 261 | 4.8 | 1.6 | 0.00 | 0.00 | 4.01 | ||
| 20260509190721 | -17 | 256 | 4.8 | 6.4 | 0.00 | 0.00 | 3.84 | ||
| 20260509185825 | 19 | 265 | 3.2 | 11.3 | 0.00 | 0.00 | 3.78 | 100 | 1013.6 |
| 20260509185145 | -17 | 263 | 4.8 | 4.8 | 0.00 | 0.00 | 3.76 | ||
| 20260509184039 | -17 | 258 | 6.4 | 6.4 | 0.00 | 0.00 | 3.66 | ||
| 20260509182430 | 19 | 257 | 12.9 | 24.1 | 0.00 | 0.00 | 3.51 | 99 | 1013.3 |
| 20260509181750 | 19 | 284 | 3.2 | 12.9 | 0.00 | 0.00 | 3.43 | 99 | 1013.2 |
| 20260509181110 | -17 | 265 | 3.2 | 0.0 | 0.00 | 0.00 | 3.23 | ||
| 20260509175959 | -17 | 257 | 9.7 | 11.3 | 0.00 | 0.00 | 3.17 | ||
| 20260509175105 | -17 | 258 | 9.7 | 14.5 | 0.00 | 0.00 | 3.12 | ||
| 20260509173959 | 19 | 275 | 4.8 | 16.1 | 0.00 | 0.00 | 3.10 | 99 | 1012.3 |
| 20260509173319 | 19 | 309 | 1.6 | 20.9 | 0.00 | 0.00 | 3.07 | 99 | 1013.2 |
| 20260509172639 | -17 | 258 | 9.7 | 19.3 | 0.00 | 0.00 | 3.05 | ||
| 20260509171740 | -17 | 260 | 3.2 | 6.4 | 0.00 | 0.00 | 3.02 | ||
| 20260509170847 | -17 | 258 | 4.8 | 8.0 | 0.00 | 0.00 | 2.95 | ||
| 20260509165921 | 19 | 357 | 3.2 | 17.7 | 0.00 | 0.00 | 2.90 | 99 | 1013.0 |
| 20260509165241 | -17 | 296 | 3.2 | 1.6 | 0.00 | 0.00 | 2.90 | ||
| 20260509164347 | -17 | 50 | 3.2 | 3.2 | 0.00 | 0.00 | 2.79 | ||
| 20260509162737 | -17 | 258 | 17.7 | 4.8 | 0.00 | 0.00 | 2.77 | ||
| 20260509161412 | -17 | 266 | 4.8 | 6.4 | 0.00 | 0.00 | 2.69 | ||
| 20260509160447 | -17 | 322 | 3.2 | 3.2 | 0.00 | 0.00 | 2.67 | ||
| 20260509154623 | 18 | 68 | 3.2 | 16.1 | 0.00 | 0.00 | 2.64 | 98 | 1013.4 |
| 20260509153943 | -17 | 70 | 6.4 | 16.1 | 0.00 | 0.00 | 2.54 | ||
| 20260509153049 | -17 | 265 | 3.2 | 4.8 | 0.00 | 0.00 | 2.44 | ||
| 20260509151938 | -17 | 11 | 1.6 | 1.6 | 0.00 | 0.00 | 2.39 | ||
| 20260509151014 | -17 | 36 | 1.6 | 0.0 | 0.00 | 0.00 | 2.36 | ||
| 20260509150118 | -17 | 262 | 3.2 | 4.8 | 0.00 | 0.00 | 2.36 | ||
| 20260509145358 | 18 | 358 | 1.6 | 9.7 | 0.00 | 0.00 | 2.21 | 97 | 1013.4 |
| 20260509144718 | 18 | 342 | 1.6 | 9.7 | 0.00 | 0.00 | 1.98 | 96 | 1013.7 |
| 20260509144038 | -17 | 283 | 3.2 | 8.0 | 0.00 | 0.00 | 1.75 | ||
| 20260509143111 | 18 | 256 | 6.4 | 14.5 | 0.00 | 0.00 | 1.50 | 97 | 1013.8 |
| 20260509142431 | -17 | 269 | 4.8 | 12.9 | 0.00 | 0.00 | 1.45 | ||
| 20260509141537 | -17 | 82 | 4.8 | 4.8 | 0.00 | 0.00 | 1.30 | ||
| 20260509140254 | 18 | 358 | 1.6 | 8.0 | 0.00 | 0.00 | 1.12 | 96 | 1013.1 |
| 20260509135614 | 18 | 349 | 1.6 | 8.0 | 0.00 | 0.00 | 1.07 | 97 | 1013.4 |
| 20260509134943 | 18 | 357 | 1.6 | 11.3 | 0.00 | 0.00 | 0.99 | 97 | 1013.4 |
| 20260509134258 | -17 | 76 | 4.8 | 8.0 | 0.00 | 0.00 | 0.97 | ||
| 20260509132757 | -17 | 79 | 11.3 | 19.3 | 0.00 | 0.00 | 0.94 | ||
| 20260509131902 | 18 | 80 | 25.7 | 54.7 | 0.00 | 0.00 | 0.84 | 96 | 1013.0 |
| 20260509131222 | 18 | 80 | 33.8 | 54.7 | 0.00 | 0.00 | 0.66 | 95 | 1013.0 |
| 20260509130542 | 18 | 79 | 27.4 | 48.3 | 0.00 | 0.00 | 0.64 | 95 | 1013.5 |
| 20260509125902 | -17 | 79 | 25.7 | 29.0 | 0.00 | 0.00 | 0.36 | ||
| 20260509123534 | -17 | 78 | 51.5 | 35.4 | 0.00 | 0.00 | 0.00 | ||
| 20260509122609 | 23 | 79 | 3.2 | 9.7 | 0.00 | 0.00 | 0.00 | 89 | 1012.0 |
| 20260509121929 | 23 | 257 | 4.8 | 8.0 | 0.00 | 0.00 | 0.00 | 89 | 1011.6 |
| 20260509121249 | -17 | 254 | 4.8 | 3.2 | 0.00 | 0.00 | 0.00 | ||
| 20260509120112 | 22 | 256 | 6.4 | 14.5 | 0.00 | 0.00 | 0.00 | 90 | 1011.3 |
| 20260509115431 | -17 | 257 | 9.7 | 6.4 | 0.00 | 0.00 | 0.00 | ||
| 20260509114251 | 22 | 256 | 8.0 | 25.7 | 0.00 | 0.00 | 0.00 | 90 | 1010.7 |
| 20260509113611 | 22 | 257 | 14.5 | 25.7 | 0.00 | 0.00 | 0.00 | 89 | 1010.7 |
| 20260509112931 | -17 | 259 | 8.0 | 8.0 | 0.00 | 0.00 | 0.00 | ||
| 20260509111821 | -17 | 260 | 6.4 | 0.0 | 0.00 | 0.00 | 0.00 | ||
| 20260509110927 | -17 | 263 | 3.2 | 1.6 | 0.00 | 0.00 | 0.00 | ||
| 20260509110034 | 22 | 260 | 6.4 | 14.5 | 0.00 | 0.00 | 0.00 | 88 | 1010.4 |
| 20260509105354 | 22 | 261 | 3.2 | 9.7 | 0.00 | 0.00 | 0.00 | 88 | 1010.1 |
| 20260509104714 | -17 | 263 | 4.8 | 1.6 | 0.00 | 0.00 | 0.00 | ||
| 20260509103818 | 22 | 277 | 1.6 | 8.0 | 0.00 | 0.00 | 0.00 | 87 | 1010.4 |
| 20260509103138 | -17 | 271 | 3.2 | 0.0 | 0.00 | 0.00 | 0.00 | ||
| 20260509102244 | 23 | 265 | 3.2 | 9.7 | 0.00 | 0.00 | 0.00 | 87 | 1010.3 |
| 20260509101608 | 22 | 272 | 3.2 | 9.7 | 0.00 | 0.00 | 0.00 | 86 | 1010.1 |
| 20260509100924 | -17 | 261 | 4.8 | 0.0 | 0.00 | 0.00 | 0.00 | ||
| 20260509095601 | -17 | 261 | 3.2 | 1.6 | 0.00 | 0.00 | 0.00 | ||
| 20260509094707 | -17 | 296 | 1.6 | 0.0 | 0.00 | 0.00 | 0.00 |